Record high temperature 32.9°C Record low temperature -8.5°C Record high gust 255.3 mph Record high average 172.4 mph Record daily rain 43.6 mm Record low windchill -14.8°C Record high barometer 1052.1 hPa Record low barometer 963.2 hPa
Daily high pressure 1025.7 hPa Daily low pressure 1022.5 hPa Daily low windchill 2.6°C Daily high heat index 10.4°C Daily high gust speed 23.0 mph WSW Daily high average speed 16.4 mph S
Seaford Weather Data
LAST READING AT TIME: 15:30 DATE: 18 February 2020, time of next update: 16:00
Current WeatherMainly cloudy/Dry Current Temperature 8.7°C (47.7°F), Apparent temp 4.8°C, Apparent temp solar 7.2°C
Maximum Temperature (since midnight)10.4°C at: 1:12 PM Minimum Temperature (since midnight)6.4°C at: 2:43 AM
Average windspeed (ten minute)8.3 mph Wind Direction (ten minute)SW (230°)
Windchill Temperature 5.9°C Maximum Gust (last hour)22.0 mph at: 14:46
Maximum Gust (since midnight)23.0 mph at: 10:03 Maximum 1 minute average (since midnight)16.4 mph at: 01:33
Rainfall (last hour)0.0 mm Rainfall (since midnight)0.0 mm (0.00 in.)---
Rainfall This month 99.2 mm (3.91 in.) Rainfall To date this year 183.6 mm (7.23 in.)
Maximum rain per minute (last hour)0.0 mm/min Maximum rain per hour (last 6 hours)0.0 mm/hour
Yesterdays rainfall 6.4 mm DewPoint 6.0°C (Wet Bulb :7.5°C )
Humidity 83 %, Humidex 8.3°C Barometer corrected to msl1022.6 hPa
Pressure change -1.0 hPa (last hour) Trend (last hour)STEADY
Pressure change (last 12 hours)-1.4 hPa Pressure change (last 6 hours)-3.2 hPa
Current 04:40 hours of sunshine today, current sky: Mainly cloudy
Sunshine hours for the year: 102:48 hrs Sunshine hours for the month: 49:50 hrs
Current evapotranspiration rate 1.8 mm per day. Yesterday's reading 0.8


Click here to listen to the current weather conditions


Weather report/warning/Metars

Shoreham Airport, United Kingdom (EGKA) 50-50N 000-17W 0M
Feb 18, 2020 - 09:50 AM EST / 2020.02.18 1450 UTC
Wind: from the SW (230 degrees) at 17 MPH (15 KT):0
Visibility: 5 mile(s):0
Sky conditions: partly cloudy
Weather: showers in the vicinity
Temperature: 48 F (9 C)
Dew Point: 42 F (6 C)
Relative Humidity: 81%
Pressure (altimeter): 30.12 in. Hg (1020 hPa)
ob: EGKA 181450Z 23015KT 9000 VCSH SCT014 09/06 Q1020 RESHRA
cycle: 15
Yeovilton, United Kingdom (EGDY) 51-00N 002-38W 0M
Feb 18, 2020 - 09:50 AM EST / 2020.02.18 1450 UTC
Wind: from the WSW (240 degrees) at 16 MPH (14 KT):0
Visibility: greater than 7 mile(s):0
Sky conditions: mostly cloudy
Temperature: 48 F (9 C)
Dew Point: 41 F (5 C)
Relative Humidity: 75%
Pressure (altimeter): 30.06 in. Hg (1018 hPa)
ob: EGDY 181450Z 24014KT 9999 SCT020 BKN030 09/05 Q1018 TEMPO 6000 -SHRA SCT020 RMK WHT TEMPO WHT
cycle: 15
Luton Airport , United Kingdom (EGGW) 51-52N 000-22W
Feb 18, 2020 - 09:50 AM EST / 2020.02.18 1450 UTC
Wind: from the SW (230 degrees) at 20 MPH (17 KT):0
Visibility: greater than 7 mile(s):0
Sky conditions: partly cloudy
Temperature: 44 F (7 C)
Dew Point: 39 F (4 C)
Relative Humidity: 81%
Pressure (altimeter): 29.97 in. Hg (1015 hPa)
ob: EGGW 181450Z AUTO 23017KT 9999 FEW026 SCT034 07/04 Q1015
cycle: 15
Bournemouth Airport, United Kingdom (EGHH) 50-47N 001-50W 0M
Feb 18, 2020 - 09:50 AM EST / 2020.02.18 1450 UTC
Wind: from the WSW (250 degrees) at 18 MPH (16 KT) gusting to 30 MPH (26 KT):0
Visibility: greater than 7 mile(s):0
Sky conditions: mostly cloudy
Temperature: 50 F (10 C)
Dew Point: 42 F (6 C)
Relative Humidity: 76%
Pressure (altimeter): 30.09 in. Hg (1019 hPa)
ob: EGHH 181450Z 25016G26KT 9999 FEW018 BKN044 10/06 Q1019
cycle: 15
Guernsey Airport, United Kingdom (EGJB) 49-26N 002-36W 0M
Feb 18, 2020 - 09:50 AM EST / 2020.02.18 1450 UTC
Wind: from the WSW (240 degrees) at 25 MPH (22 KT):0
Visibility: greater than 7 mile(s):0
Sky conditions: mostly clear
Temperature: 50 F (10 C)
Dew Point: 44 F (7 C)
Relative Humidity: 81%
Pressure (altimeter): 30.21 in. Hg (1023 hPa)
ob: EGJB 181450Z 24022KT 9999 FEW018 10/07 Q1023
cycle: 15
Jersey Airport, United Kingdom (EGJJ) 49-13N 002-12W 0M
Feb 18, 2020 - 09:50 AM EST / 2020.02.18 1450 UTC
Wind: from the WSW (240 degrees) at 29 MPH (25 KT):0
Visibility: greater than 7 mile(s):0
Sky conditions: mostly clear
Temperature: 50 F (10 C)
Dew Point: 42 F (6 C)
Relative Humidity: 76%
Pressure (altimeter): 30.24 in. Hg (1024 hPa)
ob: EGJJ 181450Z 24025KT 9999 FEW035 10/06 Q1024
cycle: 15
London / Gatwick Airport, United Kingdom (EGKK) 51-09N 000-11W 0M
Feb 18, 2020 - 09:50 AM EST / 2020.02.18 1450 UTC
Wind: from the SW (230 degrees) at 16 MPH (14 KT) gusting to 29 MPH (25 KT):0
Visibility: greater than 7 mile(s):0
Sky conditions: partly cloudy
Temperature: 48 F (9 C)
Dew Point: 42 F (6 C)
Relative Humidity: 81%
Pressure (altimeter): 30.06 in. Hg (1018 hPa)
ob: EGKK 181450Z 23014G25KT 9999 SCT019 SCT024 09/06 Q1018
cycle: 15
London / Heathrow Airport, United Kingdom (EGLL) 51-29N 000-27W 0M
Feb 18, 2020 - 09:50 AM EST / 2020.02.18 1450 UTC
Wind: from the W (260 degrees) at 21 MPH (18 KT):0
Visibility: greater than 7 mile(s):0
Sky conditions: mostly cloudy
Weather: Cumulonimbus clouds observed
Temperature: 44 F (7 C)
Dew Point: 39 F (4 C)
Relative Humidity: 81%
Pressure (altimeter): 30.06 in. Hg (1018 hPa)
ob: EGLL 181450Z 26018KT 9999 FEW017CB BKN025 BKN031 07/04 Q1018 RESHRA
cycle: 15
Southend-On-Sea , United Kingdom (EGMC) 51-34N 000-42E
Feb 18, 2020 - 09:50 AM EST / 2020.02.18 1450 UTC
Wind: from the SW (230 degrees) at 23 MPH (20 KT):0
Visibility: greater than 7 mile(s):0
Sky conditions: partly cloudy
Temperature: 50 F (10 C)
Dew Point: 39 F (4 C)
Relative Humidity: 66%
Pressure (altimeter): 30.03 in. Hg (1017 hPa)
ob: EGMC 181450Z 23020KT 9999 SCT046 10/04 Q1017
cycle: 15
Lydd Airport , United Kingdom (EGMD) 50-57N 000-56E
Feb 18, 2020 - 09:50 AM EST / 2020.02.18 1450 UTC
Wind: from the SW (230 degrees) at 26 MPH (23 KT):0
Visibility: greater than 7 mile(s):0
Sky conditions: mostly cloudy
Temperature: 50 F (10 C)
Dew Point: 44 F (7 C)
Relative Humidity: 81%
Pressure (altimeter): 30.12 in. Hg (1020 hPa)
ob: EGMD 181450Z 23023KT 9999 SCT027 BKN033 10/07 Q1020
cycle: 15
Glasgow Airport, United Kingdom (EGPF) 55-52N 004-26W 0M
Feb 18, 2020 - 09:50 AM EST / 2020.02.18 1450 UTC
Wind: from the WSW (240 degrees) at 21 MPH (18 KT) gusting to 32 MPH (28 KT):0
Visibility: greater than 7 mile(s):0
Sky conditions: mostly cloudy
Weather: Cumulonimbus clouds observed
Temperature: 42 F (6 C)
Dew Point: 35 F (2 C)
Relative Humidity: 75%
Pressure (altimeter): 29.59 in. Hg (1002 hPa)
ob: EGPF 181450Z AUTO 24018G28KT 9999 FEW026/// BKN030/// //////CB 06/02 Q1002
cycle: 15
Stansted Airport, United Kingdom (EGSS) 51-53N 000-14E 0M
Feb 18, 2020 - 09:50 AM EST / 2020.02.18 1450 UTC
Wind: from the SW (230 degrees) at 22 MPH (19 KT):0
Visibility: greater than 7 mile(s):0
Sky conditions: mostly cloudy
Weather: Towering cumulus clouds observed
Temperature: 48 F (9 C)
Dew Point: 37 F (3 C)
Relative Humidity: 66%
Pressure (altimeter): 30.00 in. Hg (1016 hPa)
ob: EGSS 181450Z AUTO 23019KT 9999 BKN032/// BKN040/// //////TCU 09/03 Q1016
cycle: 15
Brize Norton, United Kingdom (EGVN) 51-45N 001-35W 0M
Feb 18, 2020 - 09:50 AM EST / 2020.02.18 1450 UTC
Wind: from the WSW (250 degrees) at 13 MPH (11 KT) gusting to 31 MPH (27 KT):0
Visibility: greater than 7 mile(s):0
Sky conditions: mostly cloudy
Weather: light rain showers
Temperature: 48 F (9 C)
Dew Point: 41 F (5 C)
Relative Humidity: 75%
Pressure (altimeter): 29.97 in. Hg (1015 hPa)
ob: EGVN 181450Z 25011G27KT 9999 -SHRA FEW020 SCT026 BKN040 09/05 Q1015 NOSIG RMK BLU BLU
cycle: 15



The data is logged at two minute intervals, but there is data recorded every minute. On the graph, the Blue line represents the average windspeed, the Red line is the maximum gust for that interval, and the Green line is what the wind has dropped off to in the same interval. Fuschia is the Barometer, and the dew point and Blue is humidity.

Use the RELOAD facility on your browser to retrieve the latest data.

Click here for a daily update of the averages/extremes to date for the month

Check *Live* Weather

Created by "Weather Display" software version 10.37S at this start time/date 14:28:25 23/01/2020